sensor_id;sensor_type;location;lat;lon;timestamp;P1;durP1;ratioP1;P2;durP2;ratioP2
80370;SDS011;69894;48.124;11.542;2023-05-20T00:00:45;6.40;;;3.53;;
80370;SDS011;69894;48.124;11.542;2023-05-20T00:03:13;6.88;;;3.40;;
80370;SDS011;69894;48.124;11.542;2023-05-20T00:05:39;10.20;;;3.40;;
80370;SDS011;69894;48.124;11.542;2023-05-20T00:08:05;5.90;;;3.13;;
80370;SDS011;69894;48.124;11.542;2023-05-20T00:10:33;7.30;;;3.40;;
80370;SDS011;69894;48.124;11.542;2023-05-20T00:13:01;6.18;;;3.00;;
80370;SDS011;69894;48.124;11.542;2023-05-20T00:15:27;7.28;;;3.28;;
80370;SDS011;69894;48.124;11.542;2023-05-20T00:17:53;6.38;;;3.35;;
80370;SDS011;69894;48.124;11.542;2023-05-20T00:20:19;8.90;;;3.35;;
80370;SDS011;69894;48.124;11.542;2023-05-20T00:22:44;6.93;;;3.28;;
80370;SDS011;69894;48.124;11.542;2023-05-20T00:25:10;10.02;;;3.22;;
80370;SDS011;69894;48.124;11.542;2023-05-20T00:27:35;6.10;;;3.03;;
80370;SDS011;69894;48.124;11.542;2023-05-20T00:30:01;6.00;;;2.92;;
80370;SDS011;69894;48.124;11.542;2023-05-20T00:32:26;6.28;;;3.22;;
80370;SDS011;69894;48.124;11.542;2023-05-20T00:34:55;5.32;;;3.40;;
80370;SDS011;69894;48.124;11.542;2023-05-20T00:37:21;5.57;;;3.20;;
80370;SDS011;69894;48.124;11.542;2023-05-20T00:39:47;5.78;;;3.22;;
80370;SDS011;69894;48.124;11.542;2023-05-20T00:42:18;10.50;;;3.65;;
80370;SDS011;69894;48.124;11.542;2023-05-20T00:44:44;7.28;;;3.85;;
80370;SDS011;69894;48.124;11.542;2023-05-20T00:47:10;6.10;;;3.22;;
80370;SDS011;69894;48.124;11.542;2023-05-20T00:49:35;5.95;;;3.20;;
80370;SDS011;69894;48.124;11.542;2023-05-20T00:52:00;6.85;;;3.47;;
80370;SDS011;69894;48.124;11.542;2023-05-20T00:54:26;6.40;;;3.30;;
80370;SDS011;69894;48.124;11.542;2023-05-20T00:56:51;7.63;;;3.70;;
80370;SDS011;69894;48.124;11.542;2023-05-20T00:59:17;7.22;;;3.40;;
80370;SDS011;69894;48.124;11.542;2023-05-20T01:01:42;8.73;;;3.90;;
80370;SDS011;69894;48.124;11.542;2023-05-20T01:04:08;7.10;;;3.67;;
80370;SDS011;69894;48.124;11.542;2023-05-20T01:06:34;6.18;;;3.22;;
80370;SDS011;69894;48.124;11.542;2023-05-20T01:09:01;7.57;;;3.80;;
80370;SDS011;69894;48.124;11.542;2023-05-20T01:11:28;7.85;;;3.60;;
80370;SDS011;69894;48.124;11.542;2023-05-20T01:14:01;7.15;;;3.50;;
80370;SDS011;69894;48.124;11.542;2023-05-20T01:16:28;9.35;;;3.80;;
80370;SDS011;69894;48.124;11.542;2023-05-20T01:18:55;7.93;;;3.30;;
80370;SDS011;69894;48.124;11.542;2023-05-20T01:21:21;7.97;;;3.80;;
80370;SDS011;69894;48.124;11.542;2023-05-20T01:23:47;10.65;;;4.00;;
80370;SDS011;69894;48.124;11.542;2023-05-20T01:26:12;7.18;;;4.00;;
80370;SDS011;69894;48.124;11.542;2023-05-20T01:28:38;7.97;;;3.83;;
80370;SDS011;69894;48.124;11.542;2023-05-20T01:31:05;7.95;;;4.00;;
80370;SDS011;69894;48.124;11.542;2023-05-20T01:33:35;7.45;;;3.67;;
80370;SDS011;69894;48.124;11.542;2023-05-20T01:36:01;6.78;;;3.90;;
80370;SDS011;69894;48.124;11.542;2023-05-20T01:38:27;8.10;;;4.35;;
80370;SDS011;69894;48.124;11.542;2023-05-20T01:40:52;8.15;;;4.00;;
80370;SDS011;69894;48.124;11.542;2023-05-20T01:43:18;7.75;;;4.15;;
80370;SDS011;69894;48.124;11.542;2023-05-20T01:45:44;7.55;;;3.97;;
80370;SDS011;69894;48.124;11.542;2023-05-20T01:48:11;8.45;;;4.35;;
80370;SDS011;69894;48.124;11.542;2023-05-20T01:50:37;9.68;;;4.25;;
80370;SDS011;69894;48.124;11.542;2023-05-20T01:53:03;8.95;;;4.25;;
80370;SDS011;69894;48.124;11.542;2023-05-20T01:55:28;9.55;;;4.35;;
80370;SDS011;69894;48.124;11.542;2023-05-20T01:57:54;8.65;;;4.05;;
80370;SDS011;69894;48.124;11.542;2023-05-20T02:00:19;9.00;;;4.43;;
80370;SDS011;69894;48.124;11.542;2023-05-20T02:02:44;9.90;;;4.78;;
80370;SDS011;69894;48.124;11.542;2023-05-20T02:05:10;10.60;;;4.68;;
80370;SDS011;69894;48.124;11.542;2023-05-20T02:07:35;8.20;;;4.10;;
80370;SDS011;69894;48.124;11.542;2023-05-20T02:10:00;9.80;;;4.57;;
80370;SDS011;69894;48.124;11.542;2023-05-20T02:12:26;8.88;;;4.55;;
80370;SDS011;69894;48.124;11.542;2023-05-20T02:14:51;8.75;;;4.40;;
80370;SDS011;69894;48.124;11.542;2023-05-20T02:17:16;10.45;;;5.20;;
80370;SDS011;69894;48.124;11.542;2023-05-20T02:19:43;9.15;;;4.72;;
80370;SDS011;69894;48.124;11.542;2023-05-20T02:22:08;10.52;;;5.13;;
80370;SDS011;69894;48.124;11.542;2023-05-20T02:24:34;12.02;;;4.93;;
80370;SDS011;69894;48.124;11.542;2023-05-20T02:26:59;8.75;;;4.47;;
80370;SDS011;69894;48.124;11.542;2023-05-20T02:29:25;11.73;;;5.38;;
80370;SDS011;69894;48.124;11.542;2023-05-20T02:31:51;10.98;;;5.13;;
80370;SDS011;69894;48.124;11.542;2023-05-20T02:34:16;12.52;;;5.40;;
80370;SDS011;69894;48.124;11.542;2023-05-20T02:36:42;10.68;;;4.90;;
80370;SDS011;69894;48.124;11.542;2023-05-20T02:39:07;11.45;;;5.28;;
80370;SDS011;69894;48.124;11.542;2023-05-20T02:41:32;9.23;;;4.80;;
80370;SDS011;69894;48.124;11.542;2023-05-20T02:43:58;9.48;;;4.75;;
80370;SDS011;69894;48.124;11.542;2023-05-20T02:46:23;10.18;;;5.47;;
80370;SDS011;69894;48.124;11.542;2023-05-20T02:48:48;11.75;;;5.53;;
80370;SDS011;69894;48.124;11.542;2023-05-20T02:51:14;10.88;;;5.32;;
80370;SDS011;69894;48.124;11.542;2023-05-20T02:53:39;11.43;;;5.47;;
80370;SDS011;69894;48.124;11.542;2023-05-20T02:56:05;10.68;;;5.25;;
80370;SDS011;69894;48.124;11.542;2023-05-20T02:58:32;11.32;;;6.20;;
80370;SDS011;69894;48.124;11.542;2023-05-20T03:00:59;12.45;;;5.88;;
80370;SDS011;69894;48.124;11.542;2023-05-20T03:03:25;14.55;;;6.88;;
80370;SDS011;69894;48.124;11.542;2023-05-20T03:05:51;12.60;;;6.25;;
80370;SDS011;69894;48.124;11.542;2023-05-20T03:08:17;15.40;;;6.22;;
80370;SDS011;69894;48.124;11.542;2023-05-20T03:10:44;15.18;;;6.65;;
80370;SDS011;69894;48.124;11.542;2023-05-20T03:13:09;17.40;;;7.40;;
80370;SDS011;69894;48.124;11.542;2023-05-20T03:15:38;14.15;;;7.25;;
80370;SDS011;69894;48.124;11.542;2023-05-20T03:18:04;15.15;;;7.28;;
80370;SDS011;69894;48.124;11.542;2023-05-20T03:20:30;16.42;;;8.10;;
80370;SDS011;69894;48.124;11.542;2023-05-20T03:23:00;17.25;;;8.13;;
80370;SDS011;69894;48.124;11.542;2023-05-20T03:25:26;17.48;;;7.88;;
80370;SDS011;69894;48.124;11.542;2023-05-20T03:27:52;17.55;;;7.93;;
80370;SDS011;69894;48.124;11.542;2023-05-20T03:30:17;16.35;;;8.32;;
80370;SDS011;69894;48.124;11.542;2023-05-20T03:32:43;18.08;;;7.68;;
80370;SDS011;69894;48.124;11.542;2023-05-20T03:35:08;16.60;;;7.63;;
80370;SDS011;69894;48.124;11.542;2023-05-20T03:37:34;17.02;;;8.43;;
80370;SDS011;69894;48.124;11.542;2023-05-20T03:40:01;18.80;;;8.13;;
80370;SDS011;69894;48.124;11.542;2023-05-20T03:42:30;18.20;;;7.85;;
80370;SDS011;69894;48.124;11.542;2023-05-20T03:44:55;15.00;;;8.20;;
80370;SDS011;69894;48.124;11.542;2023-05-20T03:47:21;19.17;;;8.57;;
80370;SDS011;69894;48.124;11.542;2023-05-20T03:49:46;16.40;;;7.63;;
80370;SDS011;69894;48.124;11.542;2023-05-20T03:52:11;18.90;;;7.68;;
80370;SDS011;69894;48.124;11.542;2023-05-20T03:54:37;18.95;;;8.38;;
80370;SDS011;69894;48.124;11.542;2023-05-20T03:57:02;17.38;;;7.40;;
80370;SDS011;69894;48.124;11.542;2023-05-20T03:59:28;17.73;;;8.68;;
80370;SDS011;69894;48.124;11.542;2023-05-20T04:01:53;17.35;;;8.55;;
80370;SDS011;69894;48.124;11.542;2023-05-20T04:04:21;21.33;;;8.80;;
80370;SDS011;69894;48.124;11.542;2023-05-20T04:06:46;18.98;;;8.88;;
80370;SDS011;69894;48.124;11.542;2023-05-20T04:09:11;18.27;;;8.50;;
80370;SDS011;69894;48.124;11.542;2023-05-20T04:11:37;18.75;;;8.00;;
80370;SDS011;69894;48.124;11.542;2023-05-20T04:14:02;19.88;;;8.65;;
80370;SDS011;69894;48.124;11.542;2023-05-20T04:16:28;17.45;;;8.20;;
80370;SDS011;69894;48.124;11.542;2023-05-20T04:18:54;16.00;;;7.65;;
80370;SDS011;69894;48.124;11.542;2023-05-20T04:21:19;17.67;;;8.32;;
80370;SDS011;69894;48.124;11.542;2023-05-20T04:23:45;15.95;;;7.70;;
80370;SDS011;69894;48.124;11.542;2023-05-20T04:26:10;18.85;;;7.85;;
80370;SDS011;69894;48.124;11.542;2023-05-20T04:28:36;17.77;;;8.60;;
80370;SDS011;69894;48.124;11.542;2023-05-20T04:31:02;17.20;;;8.10;;
80370;SDS011;69894;48.124;11.542;2023-05-20T04:33:28;14.63;;;7.88;;
80370;SDS011;69894;48.124;11.542;2023-05-20T04:35:54;17.90;;;7.75;;
80370;SDS011;69894;48.124;11.542;2023-05-20T04:38:22;16.90;;;7.60;;
80370;SDS011;69894;48.124;11.542;2023-05-20T04:40:53;20.45;;;9.07;;
80370;SDS011;69894;48.124;11.542;2023-05-20T04:43:22;20.20;;;9.90;;
80370;SDS011;69894;48.124;11.542;2023-05-20T04:45:47;17.48;;;8.43;;
80370;SDS011;69894;48.124;11.542;2023-05-20T04:48:13;16.00;;;8.43;;
80370;SDS011;69894;48.124;11.542;2023-05-20T04:50:38;15.45;;;7.40;;
80370;SDS011;69894;48.124;11.542;2023-05-20T04:53:04;16.95;;;8.63;;
80370;SDS011;69894;48.124;11.542;2023-05-20T04:55:29;16.40;;;7.97;;
80370;SDS011;69894;48.124;11.542;2023-05-20T04:57:55;18.05;;;7.72;;
80370;SDS011;69894;48.124;11.542;2023-05-20T05:00:21;18.00;;;7.68;;
80370;SDS011;69894;48.124;11.542;2023-05-20T05:02:47;17.00;;;8.55;;
80370;SDS011;69894;48.124;11.542;2023-05-20T05:05:12;19.42;;;8.98;;
80370;SDS011;69894;48.124;11.542;2023-05-20T05:07:38;17.15;;;8.15;;
80370;SDS011;69894;48.124;11.542;2023-05-20T05:10:04;18.27;;;8.07;;
80370;SDS011;69894;48.124;11.542;2023-05-20T05:12:30;16.73;;;8.63;;
80370;SDS011;69894;48.124;11.542;2023-05-20T05:14:57;15.20;;;7.35;;
80370;SDS011;69894;48.124;11.542;2023-05-20T05:17:23;19.35;;;9.20;;
80370;SDS011;69894;48.124;11.542;2023-05-20T05:19:48;18.08;;;8.77;;
80370;SDS011;69894;48.124;11.542;2023-05-20T05:22:14;20.27;;;9.20;;
80370;SDS011;69894;48.124;11.542;2023-05-20T05:24:39;17.38;;;8.73;;
80370;SDS011;69894;48.124;11.542;2023-05-20T05:27:05;19.30;;;9.95;;
80370;SDS011;69894;48.124;11.542;2023-05-20T05:29:30;18.15;;;9.13;;
80370;SDS011;69894;48.124;11.542;2023-05-20T05:31:55;18.60;;;8.27;;
80370;SDS011;69894;48.124;11.542;2023-05-20T05:34:21;18.23;;;9.05;;
80370;SDS011;69894;48.124;11.542;2023-05-20T05:36:46;19.23;;;8.52;;
80370;SDS011;69894;48.124;11.542;2023-05-20T05:39:11;15.77;;;8.48;;
80370;SDS011;69894;48.124;11.542;2023-05-20T05:41:38;18.38;;;9.38;;
80370;SDS011;69894;48.124;11.542;2023-05-20T05:44:03;17.40;;;7.90;;
80370;SDS011;69894;48.124;11.542;2023-05-20T05:46:29;20.02;;;8.85;;
80370;SDS011;69894;48.124;11.542;2023-05-20T05:48:55;16.83;;;8.45;;
80370;SDS011;69894;48.124;11.542;2023-05-20T05:51:22;17.17;;;8.27;;
80370;SDS011;69894;48.124;11.542;2023-05-20T05:53:49;16.05;;;6.85;;
80370;SDS011;69894;48.124;11.542;2023-05-20T05:56:14;15.82;;;7.28;;
80370;SDS011;69894;48.124;11.542;2023-05-20T05:58:40;16.30;;;8.13;;
80370;SDS011;69894;48.124;11.542;2023-05-20T06:01:05;16.90;;;8.63;;
80370;SDS011;69894;48.124;11.542;2023-05-20T06:03:31;16.73;;;8.38;;
80370;SDS011;69894;48.124;11.542;2023-05-20T06:05:56;15.45;;;6.82;;
80370;SDS011;69894;48.124;11.542;2023-05-20T06:08:22;17.50;;;8.30;;
80370;SDS011;69894;48.124;11.542;2023-05-20T06:10:47;16.52;;;8.68;;
80370;SDS011;69894;48.124;11.542;2023-05-20T06:13:13;13.93;;;6.85;;
80370;SDS011;69894;48.124;11.542;2023-05-20T06:15:39;14.63;;;7.63;;
80370;SDS011;69894;48.124;11.542;2023-05-20T06:18:05;14.93;;;7.85;;
80370;SDS011;69894;48.124;11.542;2023-05-20T06:20:30;16.58;;;8.35;;
80370;SDS011;69894;48.124;11.542;2023-05-20T06:22:55;14.15;;;8.20;;
80370;SDS011;69894;48.124;11.542;2023-05-20T06:25:21;14.65;;;7.45;;
80370;SDS011;69894;48.124;11.542;2023-05-20T06:27:47;14.93;;;7.28;;
80370;SDS011;69894;48.124;11.542;2023-05-20T06:30:12;15.45;;;8.20;;
80370;SDS011;69894;48.124;11.542;2023-05-20T06:32:38;13.90;;;7.72;;
80370;SDS011;69894;48.124;11.542;2023-05-20T06:35:03;16.73;;;8.30;;
80370;SDS011;69894;48.124;11.542;2023-05-20T06:37:29;13.77;;;7.63;;
80370;SDS011;69894;48.124;11.542;2023-05-20T06:39:54;13.98;;;7.55;;
80370;SDS011;69894;48.124;11.542;2023-05-20T06:42:20;13.73;;;6.85;;
80370;SDS011;69894;48.124;11.542;2023-05-20T06:44:45;13.73;;;7.55;;
80370;SDS011;69894;48.124;11.542;2023-05-20T06:47:13;15.68;;;8.45;;
80370;SDS011;69894;48.124;11.542;2023-05-20T06:49:39;13.50;;;8.30;;
80370;SDS011;69894;48.124;11.542;2023-05-20T06:52:04;13.15;;;7.00;;
80370;SDS011;69894;48.124;11.542;2023-05-20T06:54:30;15.57;;;7.70;;
80370;SDS011;69894;48.124;11.542;2023-05-20T06:56:58;17.55;;;8.98;;
80370;SDS011;69894;48.124;11.542;2023-05-20T06:59:23;15.13;;;7.53;;
80370;SDS011;69894;48.124;11.542;2023-05-20T07:01:49;17.00;;;8.80;;
80370;SDS011;69894;48.124;11.542;2023-05-20T07:04:14;14.48;;;7.65;;
80370;SDS011;69894;48.124;11.542;2023-05-20T07:06:40;13.10;;;7.53;;
80370;SDS011;69894;48.124;11.542;2023-05-20T07:09:05;14.82;;;8.60;;
80370;SDS011;69894;48.124;11.542;2023-05-20T07:11:31;16.92;;;8.45;;
80370;SDS011;69894;48.124;11.542;2023-05-20T07:13:57;16.10;;;7.82;;
80370;SDS011;69894;48.124;11.542;2023-05-20T07:16:23;15.40;;;8.20;;
80370;SDS011;69894;48.124;11.542;2023-05-20T07:18:48;17.05;;;9.20;;
80370;SDS011;69894;48.124;11.542;2023-05-20T07:21:14;14.02;;;7.78;;
80370;SDS011;69894;48.124;11.542;2023-05-20T07:23:39;13.82;;;7.40;;
80370;SDS011;69894;48.124;11.542;2023-05-20T07:26:04;14.25;;;8.02;;
80370;SDS011;69894;48.124;11.542;2023-05-20T07:28:30;15.00;;;7.82;;
80370;SDS011;69894;48.124;11.542;2023-05-20T07:30:55;15.40;;;8.68;;
80370;SDS011;69894;48.124;11.542;2023-05-20T07:33:21;19.52;;;6.85;;
80370;SDS011;69894;48.124;11.542;2023-05-20T07:35:47;17.33;;;8.65;;
80370;SDS011;69894;48.124;11.542;2023-05-20T07:38:12;17.52;;;8.27;;
80370;SDS011;69894;48.124;11.542;2023-05-20T07:40:38;14.18;;;7.95;;
80370;SDS011;69894;48.124;11.542;2023-05-20T07:43:06;14.30;;;8.35;;
80370;SDS011;69894;48.124;11.542;2023-05-20T07:45:35;14.05;;;7.97;;
80370;SDS011;69894;48.124;11.542;2023-05-20T07:48:01;14.60;;;7.85;;
80370;SDS011;69894;48.124;11.542;2023-05-20T07:50:26;14.70;;;7.85;;
80370;SDS011;69894;48.124;11.542;2023-05-20T07:52:52;13.88;;;7.75;;
80370;SDS011;69894;48.124;11.542;2023-05-20T07:55:17;13.85;;;8.10;;
80370;SDS011;69894;48.124;11.542;2023-05-20T07:57:42;13.77;;;7.88;;
80370;SDS011;69894;48.124;11.542;2023-05-20T08:00:08;14.23;;;8.40;;
80370;SDS011;69894;48.124;11.542;2023-05-20T08:02:35;12.43;;;8.13;;
80370;SDS011;69894;48.124;11.542;2023-05-20T08:05:02;14.90;;;8.93;;
80370;SDS011;69894;48.124;11.542;2023-05-20T08:07:28;13.48;;;8.70;;
80370;SDS011;69894;48.124;11.542;2023-05-20T08:09:54;12.65;;;7.78;;
80370;SDS011;69894;48.124;11.542;2023-05-20T08:12:19;12.60;;;8.00;;
80370;SDS011;69894;48.124;11.542;2023-05-20T08:14:44;11.52;;;8.45;;
80370;SDS011;69894;48.124;11.542;2023-05-20T08:17:10;11.07;;;8.05;;
80370;SDS011;69894;48.124;11.542;2023-05-20T08:19:35;13.30;;;8.07;;
80370;SDS011;69894;48.124;11.542;2023-05-20T08:22:00;9.53;;;7.60;;
80370;SDS011;69894;48.124;11.542;2023-05-20T08:24:26;11.27;;;6.90;;
80370;SDS011;69894;48.124;11.542;2023-05-20T08:26:51;9.87;;;7.53;;
80370;SDS011;69894;48.124;11.542;2023-05-20T08:29:17;10.85;;;7.75;;
80370;SDS011;69894;48.124;11.542;2023-05-20T08:31:42;10.43;;;7.25;;
80370;SDS011;69894;48.124;11.542;2023-05-20T08:34:08;6.93;;;6.03;;
80370;SDS011;69894;48.124;11.542;2023-05-20T08:36:33;9.13;;;6.85;;
80370;SDS011;69894;48.124;11.542;2023-05-20T08:38:59;9.23;;;7.22;;
80370;SDS011;69894;48.124;11.542;2023-05-20T08:41:25;10.20;;;6.97;;
80370;SDS011;69894;48.124;11.542;2023-05-20T08:43:50;8.57;;;6.32;;
80370;SDS011;69894;48.124;11.542;2023-05-20T08:46:16;7.95;;;5.38;;
80370;SDS011;69894;48.124;11.542;2023-05-20T08:48:42;8.55;;;6.38;;
80370;SDS011;69894;48.124;11.542;2023-05-20T08:51:09;10.30;;;6.70;;
80370;SDS011;69894;48.124;11.542;2023-05-20T08:53:35;8.50;;;5.55;;
80370;SDS011;69894;48.124;11.542;2023-05-20T08:56:00;9.43;;;6.07;;
80370;SDS011;69894;48.124;11.542;2023-05-20T08:58:29;8.70;;;5.65;;
80370;SDS011;69894;48.124;11.542;2023-05-20T09:00:56;8.57;;;5.22;;
80370;SDS011;69894;48.124;11.542;2023-05-20T09:03:22;8.85;;;5.32;;
80370;SDS011;69894;48.124;11.542;2023-05-20T09:05:49;12.55;;;6.13;;
80370;SDS011;69894;48.124;11.542;2023-05-20T09:08:15;8.68;;;5.65;;
80370;SDS011;69894;48.124;11.542;2023-05-20T09:10:40;9.85;;;5.35;;
80370;SDS011;69894;48.124;11.542;2023-05-20T09:13:06;7.35;;;5.00;;
80370;SDS011;69894;48.124;11.542;2023-05-20T09:15:33;8.48;;;4.88;;
80370;SDS011;69894;48.124;11.542;2023-05-20T09:17:59;9.13;;;5.28;;
80370;SDS011;69894;48.124;11.542;2023-05-20T09:20:28;6.63;;;4.60;;
80370;SDS011;69894;48.124;11.542;2023-05-20T09:22:53;7.05;;;4.68;;
80370;SDS011;69894;48.124;11.542;2023-05-20T09:25:23;10.15;;;5.32;;
80370;SDS011;69894;48.124;11.542;2023-05-20T09:27:49;9.00;;;4.88;;
80370;SDS011;69894;48.124;11.542;2023-05-20T09:30:17;7.45;;;4.70;;
80370;SDS011;69894;48.124;11.542;2023-05-20T09:32:43;7.15;;;3.88;;
80370;SDS011;69894;48.124;11.542;2023-05-20T09:35:11;7.05;;;4.15;;
80370;SDS011;69894;48.124;11.542;2023-05-20T09:37:38;6.53;;;3.97;;
80370;SDS011;69894;48.124;11.542;2023-05-20T09:40:07;6.60;;;4.40;;
80370;SDS011;69894;48.124;11.542;2023-05-20T09:42:36;7.60;;;4.22;;
80370;SDS011;69894;48.124;11.542;2023-05-20T09:45:03;6.47;;;4.18;;
80370;SDS011;69894;48.124;11.542;2023-05-20T09:47:29;7.10;;;3.72;;
80370;SDS011;69894;48.124;11.542;2023-05-20T09:49:55;5.55;;;3.50;;
80370;SDS011;69894;48.124;11.542;2023-05-20T09:52:21;6.90;;;3.83;;
80370;SDS011;69894;48.124;11.542;2023-05-20T09:54:46;5.60;;;3.38;;
80370;SDS011;69894;48.124;11.542;2023-05-20T09:57:12;5.50;;;3.38;;
80370;SDS011;69894;48.124;11.542;2023-05-20T09:59:38;5.40;;;3.10;;
80370;SDS011;69894;48.124;11.542;2023-05-20T10:02:04;6.18;;;3.20;;
80370;SDS011;69894;48.124;11.542;2023-05-20T10:04:30;7.85;;;3.15;;
80370;SDS011;69894;48.124;11.542;2023-05-20T10:09:57;5.68;;;3.03;;
80370;SDS011;69894;48.124;11.542;2023-05-20T10:15:31;5.38;;;2.92;;
80370;SDS011;69894;48.124;11.542;2023-05-20T10:18:07;6.05;;;2.90;;
80370;SDS011;69894;48.124;11.542;2023-05-20T10:20:43;5.95;;;3.28;;
80370;SDS011;69894;48.124;11.542;2023-05-20T10:23:19;4.57;;;2.90;;
80370;SDS011;69894;48.124;11.542;2023-05-20T10:25:53;6.22;;;3.55;;
80370;SDS011;69894;48.124;11.542;2023-05-20T10:28:33;5.00;;;3.40;;
80370;SDS011;69894;48.124;11.542;2023-05-20T10:31:02;5.55;;;3.22;;
80370;SDS011;69894;48.124;11.542;2023-05-20T10:33:51;5.13;;;2.88;;
80370;SDS011;69894;48.124;11.542;2023-05-20T10:38:51;7.88;;;3.53;;
80370;SDS011;69894;48.124;11.542;2023-05-20T10:41:19;7.47;;;3.33;;
80370;SDS011;69894;48.124;11.542;2023-05-20T10:43:45;4.45;;;3.25;;
80370;SDS011;69894;48.124;11.542;2023-05-20T10:46:16;4.57;;;3.00;;
80370;SDS011;69894;48.124;11.542;2023-05-20T10:48:42;4.43;;;3.00;;
80370;SDS011;69894;48.124;11.542;2023-05-20T10:51:11;4.72;;;3.00;;
80370;SDS011;69894;48.124;11.542;2023-05-20T10:53:39;3.97;;;2.17;;
80370;SDS011;69894;48.124;11.542;2023-05-20T10:56:15;3.78;;;2.00;;
80370;SDS011;69894;48.124;11.542;2023-05-20T10:58:40;2.40;;;1.98;;
80370;SDS011;69894;48.124;11.542;2023-05-20T11:01:06;3.88;;;2.58;;
80370;SDS011;69894;48.124;11.542;2023-05-20T11:03:32;2.88;;;2.20;;
80370;SDS011;69894;48.124;11.542;2023-05-20T11:05:57;4.10;;;2.00;;
80370;SDS011;69894;48.124;11.542;2023-05-20T11:08:22;2.88;;;2.20;;
80370;SDS011;69894;48.124;11.542;2023-05-20T11:10:54;3.22;;;2.03;;
80370;SDS011;69894;48.124;11.542;2023-05-20T11:13:20;5.55;;;1.98;;
80370;SDS011;69894;48.124;11.542;2023-05-20T11:15:47;3.75;;;2.15;;
80370;SDS011;69894;48.124;11.542;2023-05-20T11:18:13;2.90;;;2.10;;
80370;SDS011;69894;48.124;11.542;2023-05-20T11:20:39;3.70;;;2.20;;
80370;SDS011;69894;48.124;11.542;2023-05-20T11:23:04;3.75;;;1.95;;
80370;SDS011;69894;48.124;11.542;2023-05-20T11:25:30;2.80;;;2.15;;
80370;SDS011;69894;48.124;11.542;2023-05-20T11:27:58;5.18;;;2.42;;
80370;SDS011;69894;48.124;11.542;2023-05-20T11:30:24;3.33;;;2.38;;
80370;SDS011;69894;48.124;11.542;2023-05-20T11:33:00;2.55;;;2.00;;
80370;SDS011;69894;48.124;11.542;2023-05-20T11:35:28;4.53;;;2.10;;
80370;SDS011;69894;48.124;11.542;2023-05-20T11:37:55;3.60;;;2.10;;
80370;SDS011;69894;48.124;11.542;2023-05-20T11:40:25;2.90;;;2.40;;
80370;SDS011;69894;48.124;11.542;2023-05-20T11:42:58;3.15;;;2.40;;
80370;SDS011;69894;48.124;11.542;2023-05-20T11:45:24;4.53;;;2.72;;
80370;SDS011;69894;48.124;11.542;2023-05-20T11:47:58;5.65;;;2.72;;
80370;SDS011;69894;48.124;11.542;2023-05-20T11:50:24;5.45;;;2.38;;
80370;SDS011;69894;48.124;11.542;2023-05-20T11:52:56;5.30;;;2.53;;
80370;SDS011;69894;48.124;11.542;2023-05-20T11:55:23;4.65;;;2.72;;
80370;SDS011;69894;48.124;11.542;2023-05-20T11:57:49;5.05;;;2.55;;
80370;SDS011;69894;48.124;11.542;2023-05-20T12:00:16;3.80;;;2.28;;
80370;SDS011;69894;48.124;11.542;2023-05-20T12:02:41;4.18;;;2.53;;
80370;SDS011;69894;48.124;11.542;2023-05-20T12:05:08;5.18;;;2.55;;
80370;SDS011;69894;48.124;11.542;2023-05-20T12:07:33;2.67;;;2.05;;
80370;SDS011;69894;48.124;11.542;2023-05-20T12:10:00;3.40;;;2.30;;
80370;SDS011;69894;48.124;11.542;2023-05-20T12:12:25;6.15;;;2.80;;
80370;SDS011;69894;48.124;11.542;2023-05-20T12:14:51;5.47;;;2.33;;
80370;SDS011;69894;48.124;11.542;2023-05-20T12:17:16;2.78;;;2.15;;
80370;SDS011;69894;48.124;11.542;2023-05-20T12:19:41;3.22;;;2.00;;
80370;SDS011;69894;48.124;11.542;2023-05-20T12:22:07;3.87;;;2.30;;
80370;SDS011;69894;48.124;11.542;2023-05-20T12:24:32;3.95;;;2.25;;
80370;SDS011;69894;48.124;11.542;2023-05-20T12:26:57;5.27;;;2.50;;
80370;SDS011;69894;48.124;11.542;2023-05-20T12:29:23;4.25;;;2.63;;
80370;SDS011;69894;48.124;11.542;2023-05-20T12:31:48;5.50;;;2.70;;
80370;SDS011;69894;48.124;11.542;2023-05-20T12:34:15;4.95;;;3.15;;
80370;SDS011;69894;48.124;11.542;2023-05-20T12:36:40;4.03;;;2.53;;
80370;SDS011;69894;48.124;11.542;2023-05-20T12:39:06;2.65;;;2.05;;
80370;SDS011;69894;48.124;11.542;2023-05-20T12:41:32;3.58;;;2.53;;
80370;SDS011;69894;48.124;11.542;2023-05-20T12:43:57;5.38;;;2.63;;
80370;SDS011;69894;48.124;11.542;2023-05-20T12:46:22;4.70;;;2.80;;
80370;SDS011;69894;48.124;11.542;2023-05-20T12:48:48;5.20;;;2.90;;
80370;SDS011;69894;48.124;11.542;2023-05-20T12:51:13;7.78;;;2.90;;
80370;SDS011;69894;48.124;11.542;2023-05-20T12:53:38;4.05;;;2.60;;
80370;SDS011;69894;48.124;11.542;2023-05-20T12:56:04;4.72;;;2.35;;
80370;SDS011;69894;48.124;11.542;2023-05-20T12:58:29;4.78;;;2.70;;
80370;SDS011;69894;48.124;11.542;2023-05-20T13:00:55;4.00;;;2.78;;
80370;SDS011;69894;48.124;11.542;2023-05-20T13:03:20;6.22;;;3.38;;
80370;SDS011;69894;48.124;11.542;2023-05-20T13:05:45;6.40;;;3.20;;
80370;SDS011;69894;48.124;11.542;2023-05-20T13:08:11;5.82;;;3.20;;
80370;SDS011;69894;48.124;11.542;2023-05-20T13:10:38;6.22;;;2.88;;
80370;SDS011;69894;48.124;11.542;2023-05-20T13:13:03;7.67;;;3.33;;
80370;SDS011;69894;48.124;11.542;2023-05-20T13:15:29;6.57;;;3.92;;
80370;SDS011;69894;48.124;11.542;2023-05-20T13:17:56;6.82;;;3.33;;
80370;SDS011;69894;48.124;11.542;2023-05-20T13:20:22;6.78;;;4.10;;
80370;SDS011;69894;48.124;11.542;2023-05-20T13:22:48;8.67;;;4.20;;
80370;SDS011;69894;48.124;11.542;2023-05-20T13:25:14;7.40;;;3.90;;
80370;SDS011;69894;48.124;11.542;2023-05-20T13:27:39;7.70;;;4.00;;
80370;SDS011;69894;48.124;11.542;2023-05-20T13:30:05;10.80;;;4.65;;
80370;SDS011;69894;48.124;11.542;2023-05-20T13:32:31;7.35;;;4.68;;
80370;SDS011;69894;48.124;11.542;2023-05-20T13:34:57;8.10;;;4.53;;
80370;SDS011;69894;48.124;11.542;2023-05-20T13:37:23;7.07;;;4.03;;
80370;SDS011;69894;48.124;11.542;2023-05-20T13:39:49;7.38;;;3.92;;
80370;SDS011;69894;48.124;11.542;2023-05-20T13:42:15;7.88;;;4.53;;
80370;SDS011;69894;48.124;11.542;2023-05-20T13:44:40;7.75;;;4.28;;
80370;SDS011;69894;48.124;11.542;2023-05-20T13:47:06;8.10;;;4.13;;
80370;SDS011;69894;48.124;11.542;2023-05-20T13:49:31;8.85;;;4.03;;
80370;SDS011;69894;48.124;11.542;2023-05-20T13:51:56;7.88;;;4.45;;
80370;SDS011;69894;48.124;11.542;2023-05-20T13:54:22;7.47;;;4.32;;
80370;SDS011;69894;48.124;11.542;2023-05-20T13:56:47;7.88;;;4.18;;
80370;SDS011;69894;48.124;11.542;2023-05-20T13:59:13;7.35;;;4.50;;
80370;SDS011;69894;48.124;11.542;2023-05-20T14:01:38;9.53;;;4.77;;
80370;SDS011;69894;48.124;11.542;2023-05-20T14:04:08;7.80;;;4.15;;
80370;SDS011;69894;48.124;11.542;2023-05-20T14:06:34;7.97;;;4.78;;
80370;SDS011;69894;48.124;11.542;2023-05-20T14:09:01;9.48;;;4.65;;
80370;SDS011;69894;48.124;11.542;2023-05-20T14:11:27;7.22;;;4.10;;
80370;SDS011;69894;48.124;11.542;2023-05-20T14:13:52;7.80;;;4.70;;
80370;SDS011;69894;48.124;11.542;2023-05-20T14:16:17;9.33;;;4.83;;
80370;SDS011;69894;48.124;11.542;2023-05-20T14:18:42;11.40;;;5.03;;
80370;SDS011;69894;48.124;11.542;2023-05-20T14:21:08;8.88;;;4.93;;
80370;SDS011;69894;48.124;11.542;2023-05-20T14:23:33;7.85;;;4.68;;
80370;SDS011;69894;48.124;11.542;2023-05-20T14:25:58;9.52;;;4.43;;
80370;SDS011;69894;48.124;11.542;2023-05-20T14:28:24;9.38;;;4.57;;
80370;SDS011;69894;48.124;11.542;2023-05-20T14:30:49;9.40;;;4.70;;